F/V Mailys Charlie — FMIW — position and weather

sailwx.info

Track history (hours):
 
Tides and Currents Weather Stations Pressure Air Temp Water Temp Dewpoint Dewpoint Depression Visibility Wind Speed Wind Dir Waves Ship Positions

F/V Mailys Charlie

Last reported at 2015-May-27 21:33 UTC. Time now 2015-May-27 22:05 UTC.
Position N 47°21' W 002°31'.

Length 19 m.

Type: Fishing. MMSI: 228240800.

Date/timePositionNaut miles runAvg speedWind from/ knotsBaromVisibWave heightAir tempDewpointWater temp
2015-May-27 21:33N 47°21' W 002°31'0 0.0
2015-May-27 20:33N 47°21' W 002°31'0 0.0
2015-May-27 19:33N 47°21' W 002°31'0 0.0
2015-May-27 18:33N 47°21' W 002°31'0 0.0
2015-May-27 17:33N 47°21' W 002°31'0 0.0
2015-May-27 16:33N 47°21' W 002°31'8 7.4
2015-May-27 15:26N 47°22' W 002°43'8 9.3
2015-May-27 14:33N 47°25' W 002°54'9 8.8
2015-May-27 13:33N 47°27' W 003°07'9 9.2
2015-May-27 12:33N 47°34' W 003°15'9 8.8
2015-May-27 11:33N 47°41' W 003°22'3 2.5
2015-May-27 10:33N 47°44' W 003°22'0 0.0
2015-May-27 08:34N 47°44' W 003°22'0 0.0
2015-May-27 07:34N 47°44' W 003°22'0 0.0
2015-May-27 06:34N 47°44' W 003°22'0 0.0
2015-May-27 05:34N 47°44' W 003°22'0 0.0
2015-May-27 04:34N 47°44' W 003°22'0 0.0
2015-May-27 03:34N 47°44' W 003°22'0 0.0
2015-May-27 02:33N 47°44' W 003°22'0 0.0
2015-May-27 01:34N 47°44' W 003°22'0 0.0
2015-May-27 00:33N 47°44' W 003°22'0 0.0
2015-May-26 23:34N 47°44' W 003°22'0 0.0
2015-May-26 22:34N 47°44' W 003°22'0 0.0
2015-May-26 21:34N 47°44' W 003°22'0 0.0
2015-May-26 20:34N 47°44' W 003°22'0 0.0
2015-May-26 19:34N 47°44' W 003°22'0 0.0
2015-May-26 18:33N 47°44' W 003°22'0 0.0
2015-May-26 17:34N 47°44' W 003°22'0 0.0
2015-May-26 16:34N 47°44' W 003°22'0 0.0
2015-May-26 15:33N 47°44' W 003°22'0 0.0
2015-May-26 14:34N 47°44' W 003°22'0 0.0
2015-May-26 13:34N 47°44' W 003°22'0 0.0
2015-May-26 12:34N 47°44' W 003°22'0 0.0
2015-May-26 11:34N 47°44' W 003°22'0 0.0
2015-May-26 10:34N 47°44' W 003°22'0 0.0
2015-May-26 09:34N 47°44' W 003°22'0 0.0
2015-May-26 08:34N 47°44' W 003°22'0 0.0
2015-May-26 07:34N 47°44' W 003°22'0 0.0
2015-May-26 06:34N 47°44' W 003°22'0 0.0
2015-May-26 05:34N 47°44' W 003°22'0 0.0
2015-May-26 04:34N 47°44' W 003°22'0 0.0
2015-May-26 03:34N 47°44' W 003°22'0 0.0
2015-May-26 02:34N 47°44' W 003°22'0 0.0
2015-May-26 01:33N 47°44' W 003°22'0 0.0
2015-May-26 00:34N 47°44' W 003°22'0 0.0
2015-May-25 23:34N 47°44' W 003°22'0 0.0
2015-May-25 22:34N 47°44' W 003°22'0 0.0
2015-May-25 21:34N 47°44' W 003°22'0 0.0
2015-May-25 20:34N 47°44' W 003°22'0 0.0
2015-May-25 19:33N 47°44' W 003°22'0 0.0
2015-May-25 18:34N 47°44' W 003°22'0 0.0
2015-May-25 17:34N 47°44' W 003°22'0 0.0
2015-May-25 16:34N 47°44' W 003°22'0 0.0
2015-May-25 15:34N 47°44' W 003°22'0 0.0
2015-May-25 14:33N 47°44' W 003°22'0 0.0
2015-May-25 13:34N 47°44' W 003°22'0 0.0
2015-May-25 12:34N 47°44' W 003°22'0 0.0
2015-May-25 11:33N 47°44' W 003°22'0 0.0
2015-May-25 10:34N 47°44' W 003°22'0 0.0
2015-May-25 09:33N 47°44' W 003°22'0 0.0
2015-May-25 08:33N 47°44' W 003°22'0 0.0
2015-May-25 07:34N 47°44' W 003°22'0 0.0
2015-May-25 06:34N 47°44' W 003°22'0 0.0
2015-May-25 05:34N 47°44' W 003°22'0 0.0
2015-May-25 04:34N 47°44' W 003°22'0 0.0
2015-May-25 03:34N 47°44' W 003°22'0 0.0
2015-May-25 02:34N 47°44' W 003°22'0 0.0
2015-May-25 01:34N 47°44' W 003°22'0 0.0
2015-May-25 00:34N 47°44' W 003°22'0 0.0
2015-May-24 23:34N 47°44' W 003°22'0 0.0
2015-May-24 22:34N 47°44' W 003°22'0 0.0
2015-May-24 21:33N 47°44' W 003°22'0 0.0
2015-May-24 20:34N 47°44' W 003°22'0 0.0
2015-May-24 19:34N 47°44' W 003°22'0 0.0
2015-May-24 18:33N 47°44' W 003°22'0 0.0
2015-May-24 17:34N 47°44' W 003°22'0 0.0
2015-May-24 16:34N 47°44' W 003°22'0 0.0
2015-May-24 15:34N 47°44' W 003°22'0 0.0
2015-May-24 14:34N 47°44' W 003°22'0 0.0
2015-May-24 13:33N 47°44' W 003°22'0 0.0
2015-May-24 12:34N 47°44' W 003°22'0 0.0
2015-May-24 11:34N 47°44' W 003°22'0 0.0
2015-May-24 10:34N 47°44' W 003°22'0 0.0
2015-May-24 09:34N 47°44' W 003°22'0 0.0
2015-May-24 08:34N 47°44' W 003°22'0 0.0
2015-May-24 07:34N 47°44' W 003°22'0 0.0
2015-May-24 06:34N 47°44' W 003°22'0 0.0
2015-May-24 05:34N 47°44' W 003°22'0 0.0
2015-May-24 04:34N 47°44' W 003°22'0 0.0
2015-May-24 03:34N 47°44' W 003°22'0 0.0
2015-May-24 02:33N 47°44' W 003°22'0 0.0
2015-May-24 01:34N 47°44' W 003°22'0 0.0
2015-May-24 00:34N 47°44' W 003°22'0 0.0
2015-May-23 23:34N 47°44' W 003°22'0 0.0
2015-May-23 22:34N 47°44' W 003°22'0 0.0
2015-May-23 21:34N 47°44' W 003°22'0 0.0
2015-May-23 20:34N 47°44' W 003°22'0 0.0
2015-May-23 19:34N 47°44' W 003°22'0 0.0
2015-May-23 18:34N 47°44' W 003°22'0 0.0
2015-May-23 17:34N 47°44' W 003°22'0 0.0
2015-May-23 16:34N 47°44' W 003°22'0 0.0
2015-May-23 15:34N 47°44' W 003°22'0 0.0
2015-May-23 14:33N 47°44' W 003°22'0 0.0
2015-May-23 13:33N 47°44' W 003°22'0 0.0
2015-May-23 12:34N 47°44' W 003°22'0 0.0
2015-May-23 11:33N 47°44' W 003°22'0 0.0
2015-May-23 10:34N 47°44' W 003°22'0 0.0
2015-May-23 09:34N 47°44' W 003°22'0 0.0
2015-May-23 08:34N 47°44' W 003°22'0 0.0
2015-May-23 07:34N 47°44' W 003°22'0 0.0
2015-May-23 06:34N 47°44' W 003°22'0 0.0
2015-May-23 05:34N 47°44' W 003°22'0 0.0
2015-May-23 04:33N 47°44' W 003°22'0 0.0
2015-May-23 03:33N 47°44' W 003°22'0 0.0
2015-May-23 02:33N 47°44' W 003°22'0 0.0
2015-May-23 01:34N 47°44' W 003°22'0 0.0
2015-May-23 00:34N 47°44' W 003°22'0 0.0
2015-May-22 23:33N 47°44' W 003°22'0 0.0
2015-May-22 22:33N 47°44' W 003°22'0 0.0
2015-May-22 21:34N 47°44' W 003°22'0 0.0
2015-May-22 20:33N 47°44' W 003°22'0 0.0
2015-May-22 19:33N 47°44' W 003°22'0 0.0
2015-May-22 18:34N 47°44' W 003°22'0 0.0
2015-May-22 17:34N 47°44' W 003°22'0 0.0
2015-May-22 16:33N 47°44' W 003°22'0 0.0
2015-May-22 15:33N 47°44' W 003°22'0 0.0
2015-May-22 14:34N 47°44' W 003°22'0 0.0
2015-May-22 13:33N 47°44' W 003°22'0 0.0
2015-May-22 12:33N 47°44' W 003°22'0 0.0
2015-May-22 11:33N 47°44' W 003°22'0 0.0
2015-May-22 10:33N 47°44' W 003°22'0 0.0
2015-May-22 09:33N 47°44' W 003°22'0 0.0
2015-May-22 08:33N 47°44' W 003°22'0 0.0
2015-May-22 07:33N 47°44' W 003°22'0 0.0
2015-May-22 05:16N 47°44' W 003°22'0 0.1
2015-May-22 04:33N 47°44' W 003°22'0 0.0
2015-May-22 03:33N 47°44' W 003°22'0 0.0
2015-May-22 02:33N 47°44' W 003°22'0 0.0
2015-May-22 01:33N 47°44' W 003°22'0 0.0
2015-May-22 00:33N 47°44' W 003°22'0 0.0
2015-May-21 23:33N 47°44' W 003°22'0 0.0
2015-May-21 22:33N 47°44' W 003°22'0 0.0
2015-May-21 21:33N 47°44' W 003°22'0 0.0
2015-May-21 20:33N 47°44' W 003°22'0 0.3
2015-May-21 19:33N 47°44' W 003°22'0 0.0
2015-May-21 18:33N 47°44' W 003°22'0 0.0
2015-May-21 17:33N 47°44' W 003°22'0 0.0
2015-May-21 16:33N 47°44' W 003°22'5 4.9
2015-May-21 15:33N 47°40' W 003°27'9 9.3
2015-May-21 14:33N 47°39' W 003°41'  
2015-May-18 00:24N 47°35' W 005°17'  
Track history (hours):
 
Tides and Currents Weather Stations Pressure Air Temp Water Temp Dewpoint Dewpoint Depression Visibility Wind Speed Wind Dir Waves Ship Positions

F/V Mailys Charlie

Last reported at 2015-May-27 21:33 UTC. Time now 2015-May-27 22:05 UTC.
Position N 47°21' W 002°31'.

Length 19 m.

Type: Fishing. MMSI: 228240800.

Date/timePositionNaut miles runAvg speedWind from/ knotsBaromVisibWave heightAir tempDewpointWater temp
2015-May-27 21:33N 47°21' W 002°31'0 0.0
2015-May-27 20:33N 47°21' W 002°31'0 0.0
2015-May-27 19:33N 47°21' W 002°31'0 0.0
2015-May-27 18:33N 47°21' W 002°31'0 0.0
2015-May-27 17:33N 47°21' W 002°31'0 0.0
2015-May-27 16:33N 47°21' W 002°31'8 7.4
2015-May-27 15:26N 47°22' W 002°43'8 9.3
2015-May-27 14:33N 47°25' W 002°54'9 8.8
2015-May-27 13:33N 47°27' W 003°07'9 9.2
2015-May-27 12:33N 47°34' W 003°15'9 8.8
2015-May-27 11:33N 47°41' W 003°22'3 2.5
2015-May-27 10:33N 47°44' W 003°22'0 0.0
2015-May-27 08:34N 47°44' W 003°22'0 0.0
2015-May-27 07:34N 47°44' W 003°22'0 0.0
2015-May-27 06:34N 47°44' W 003°22'0 0.0
2015-May-27 05:34N 47°44' W 003°22'0 0.0
2015-May-27 04:34N 47°44' W 003°22'0 0.0
2015-May-27 03:34N 47°44' W 003°22'0 0.0
2015-May-27 02:33N 47°44' W 003°22'0 0.0
2015-May-27 01:34N 47°44' W 003°22'0 0.0
2015-May-27 00:33N 47°44' W 003°22'0 0.0
2015-May-26 23:34N 47°44' W 003°22'0 0.0
2015-May-26 22:34N 47°44' W 003°22'0 0.0
2015-May-26 21:34N 47°44' W 003°22'0 0.0
2015-May-26 20:34N 47°44' W 003°22'0 0.0
2015-May-26 19:34N 47°44' W 003°22'0 0.0
2015-May-26 18:33N 47°44' W 003°22'0 0.0
2015-May-26 17:34N 47°44' W 003°22'0 0.0
2015-May-26 16:34N 47°44' W 003°22'0 0.0
2015-May-26 15:33N 47°44' W 003°22'0 0.0
2015-May-26 14:34N 47°44' W 003°22'0 0.0
2015-May-26 13:34N 47°44' W 003°22'0 0.0
2015-May-26 12:34N 47°44' W 003°22'0 0.0
2015-May-26 11:34N 47°44' W 003°22'0 0.0
2015-May-26 10:34N 47°44' W 003°22'0 0.0
2015-May-26 09:34N 47°44' W 003°22'0 0.0
2015-May-26 08:34N 47°44' W 003°22'0 0.0
2015-May-26 07:34N 47°44' W 003°22'0 0.0
2015-May-26 06:34N 47°44' W 003°22'0 0.0
2015-May-26 05:34N 47°44' W 003°22'0 0.0
2015-May-26 04:34N 47°44' W 003°22'0 0.0
2015-May-26 03:34N 47°44' W 003°22'0 0.0
2015-May-26 02:34N 47°44' W 003°22'0 0.0
2015-May-26 01:33N 47°44' W 003°22'0 0.0
2015-May-26 00:34N 47°44' W 003°22'0 0.0
2015-May-25 23:34N 47°44' W 003°22'0 0.0
2015-May-25 22:34N 47°44' W 003°22'0 0.0
2015-May-25 21:34N 47°44' W 003°22'0 0.0
2015-May-25 20:34N 47°44' W 003°22'0 0.0
2015-May-25 19:33N 47°44' W 003°22'0 0.0
2015-May-25 18:34N 47°44' W 003°22'0 0.0
2015-May-25 17:34N 47°44' W 003°22'0 0.0
2015-May-25 16:34N 47°44' W 003°22'0 0.0
2015-May-25 15:34N 47°44' W 003°22'0 0.0
2015-May-25 14:33N 47°44' W 003°22'0 0.0
2015-May-25 13:34N 47°44' W 003°22'0 0.0
2015-May-25 12:34N 47°44' W 003°22'0 0.0
2015-May-25 11:33N 47°44' W 003°22'0 0.0
2015-May-25 10:34N 47°44' W 003°22'0 0.0
2015-May-25 09:33N 47°44' W 003°22'0 0.0
2015-May-25 08:33N 47°44' W 003°22'0 0.0
2015-May-25 07:34N 47°44' W 003°22'0 0.0
2015-May-25 06:34N 47°44' W 003°22'0 0.0
2015-May-25 05:34N 47°44' W 003°22'0 0.0
2015-May-25 04:34N 47°44' W 003°22'0 0.0
2015-May-25 03:34N 47°44' W 003°22'0 0.0
2015-May-25 02:34N 47°44' W 003°22'0 0.0
2015-May-25 01:34N 47°44' W 003°22'0 0.0
2015-May-25 00:34N 47°44' W 003°22'0 0.0
2015-May-24 23:34N 47°44' W 003°22'0 0.0
2015-May-24 22:34N 47°44' W 003°22'0 0.0
2015-May-24 21:33N 47°44' W 003°22'0 0.0
2015-May-24 20:34N 47°44' W 003°22'0 0.0
2015-May-24 19:34N 47°44' W 003°22'0 0.0
2015-May-24 18:33N 47°44' W 003°22'0 0.0
2015-May-24 17:34N 47°44' W 003°22'0 0.0
2015-May-24 16:34N 47°44' W 003°22'0 0.0
2015-May-24 15:34N 47°44' W 003°22'0 0.0
2015-May-24 14:34N 47°44' W 003°22'0 0.0
2015-May-24 13:33N 47°44' W 003°22'0 0.0
2015-May-24 12:34N 47°44' W 003°22'0 0.0
2015-May-24 11:34N 47°44' W 003°22'0 0.0
2015-May-24 10:34N 47°44' W 003°22'0 0.0
2015-May-24 09:34N 47°44' W 003°22'0 0.0
2015-May-24 08:34N 47°44' W 003°22'0 0.0
2015-May-24 07:34N 47°44' W 003°22'0 0.0
2015-May-24 06:34N 47°44' W 003°22'0 0.0
2015-May-24 05:34N 47°44' W 003°22'0 0.0
2015-May-24 04:34N 47°44' W 003°22'0 0.0
2015-May-24 03:34N 47°44' W 003°22'0 0.0
2015-May-24 02:33N 47°44' W 003°22'0 0.0
2015-May-24 01:34N 47°44' W 003°22'0 0.0
2015-May-24 00:34N 47°44' W 003°22'0 0.0
2015-May-23 23:34N 47°44' W 003°22'0 0.0
2015-May-23 22:34N 47°44' W 003°22'0 0.0
2015-May-23 21:34N 47°44' W 003°22'0 0.0
2015-May-23 20:34N 47°44' W 003°22'0 0.0
2015-May-23 19:34N 47°44' W 003°22'0 0.0
2015-May-23 18:34N 47°44' W 003°22'0 0.0
2015-May-23 17:34N 47°44' W 003°22'0 0.0
2015-May-23 16:34N 47°44' W 003°22'0 0.0
2015-May-23 15:34N 47°44' W 003°22'0 0.0
2015-May-23 14:33N 47°44' W 003°22'0 0.0
2015-May-23 13:33N 47°44' W 003°22'0 0.0
2015-May-23 12:34N 47°44' W 003°22'0 0.0
2015-May-23 11:33N 47°44' W 003°22'0 0.0
2015-May-23 10:34N 47°44' W 003°22'0 0.0
2015-May-23 09:34N 47°44' W 003°22'0 0.0
2015-May-23 08:34N 47°44' W 003°22'0 0.0
2015-May-23 07:34N 47°44' W 003°22'0 0.0
2015-May-23 06:34N 47°44' W 003°22'0 0.0
2015-May-23 05:34N 47°44' W 003°22'0 0.0
2015-May-23 04:33N 47°44' W 003°22'0 0.0
2015-May-23 03:33N 47°44' W 003°22'0 0.0
2015-May-23 02:33N 47°44' W 003°22'0 0.0
2015-May-23 01:34N 47°44' W 003°22'0 0.0
2015-May-23 00:34N 47°44' W 003°22'0 0.0
2015-May-22 23:33N 47°44' W 003°22'0 0.0
2015-May-22 22:33N 47°44' W 003°22'0 0.0
2015-May-22 21:34N 47°44' W 003°22'0 0.0
2015-May-22 20:33N 47°44' W 003°22'0 0.0
2015-May-22 19:33N 47°44' W 003°22'0 0.0
2015-May-22 18:34N 47°44' W 003°22'0 0.0
2015-May-22 17:34N 47°44' W 003°22'0 0.0
2015-May-22 16:33N 47°44' W 003°22'0 0.0
2015-May-22 15:33N 47°44' W 003°22'0 0.0
2015-May-22 14:34N 47°44' W 003°22'0 0.0
2015-May-22 13:33N 47°44' W 003°22'0 0.0
2015-May-22 12:33N 47°44' W 003°22'0 0.0
2015-May-22 11:33N 47°44' W 003°22'0 0.0
2015-May-22 10:33N 47°44' W 003°22'0 0.0
2015-May-22 09:33N 47°44' W 003°22'0 0.0
2015-May-22 08:33N 47°44' W 003°22'0 0.0
2015-May-22 07:33N 47°44' W 003°22'0 0.0
2015-May-22 05:16N 47°44' W 003°22'0 0.1
2015-May-22 04:33N 47°44' W 003°22'0 0.0
2015-May-22 03:33N 47°44' W 003°22'0 0.0
2015-May-22 02:33N 47°44' W 003°22'0 0.0
2015-May-22 01:33N 47°44' W 003°22'0 0.0
2015-May-22 00:33N 47°44' W 003°22'0 0.0
2015-May-21 23:33N 47°44' W 003°22'0 0.0
2015-May-21 22:33N 47°44' W 003°22'0 0.0
2015-May-21 21:33N 47°44' W 003°22'0 0.0
2015-May-21 20:33N 47°44' W 003°22'0 0.3
2015-May-21 19:33N 47°44' W 003°22'0 0.0
2015-May-21 18:33N 47°44' W 003°22'0 0.0
2015-May-21 17:33N 47°44' W 003°22'0 0.0
2015-May-21 16:33N 47°44' W 003°22'5 4.9
2015-May-21 15:33N 47°40' W 003°27'9 9.3
2015-May-21 14:33N 47°39' W 003°41'  
2015-May-18 00:24N 47°35' W 005°17'  

Dump ship's entire track history